createdAt,value
2018-01-24T00:00:21.214Z,116.50
2018-01-24T00:02:48.879Z,113.33
2018-01-24T00:05:16.556Z,117.13
2018-01-24T00:07:43.558Z,124.87
2018-01-24T00:10:10.856Z,126.43
2018-01-24T00:12:38.539Z,125.67
2018-01-24T00:15:05.261Z,122.87
2018-01-24T00:17:32.982Z,122.40
2018-01-24T00:19:59.808Z,122.23
2018-01-24T00:22:28.470Z,121.37
2018-01-24T00:24:56.142Z,115.87
2018-01-24T00:27:24.104Z,121.23
2018-01-24T00:29:52.796Z,119.13
2018-01-24T00:32:24.469Z,115.20
2018-01-24T00:34:51.196Z,115.90
2018-01-24T00:37:18.879Z,118.63
2018-01-24T00:39:45.648Z,117.47
2018-01-24T00:42:13.381Z,119.37
2018-01-24T00:44:42.088Z,110.83
2018-01-24T00:47:09.756Z,115.50
2018-01-24T00:49:37.398Z,114.07
2018-01-24T00:52:05.106Z,114.80
2018-01-24T00:54:33.818Z,115.13
2018-01-24T00:57:01.547Z,123.33
2018-01-24T00:59:28.270Z,116.27
2018-01-24T01:01:55.979Z,118.30
2018-01-24T01:04:23.969Z,120.67
2018-01-24T01:06:51.684Z,123.37
2018-01-24T01:09:19.358Z,119.83
2018-01-24T01:11:46.085Z,124.50
2018-01-24T01:14:13.753Z,122.97
2018-01-24T01:16:41.482Z,126.23
2018-01-24T01:19:10.204Z,123.73
2018-01-24T01:21:42.832Z,122.60
2018-01-24T01:24:09.540Z,121.37
2018-01-24T01:26:37.200Z,119.97
2018-01-24T01:29:05.916Z,118.87
2018-01-24T01:31:32.634Z,121.50
2018-01-24T01:34:01.299Z,122.40
2018-01-24T01:36:29.033Z,117.30
2018-01-24T01:38:56.746Z,120.53
2018-01-24T01:41:26.322Z,120.50
2018-01-24T01:43:53.100Z,117.43
2018-01-24T01:46:21.824Z,120.63
2018-01-24T01:48:48.554Z,118.33
2018-01-24T01:51:16.258Z,120.60
2018-01-24T01:53:43.986Z,119.73
2018-01-24T01:56:10.733Z,125.13
2018-01-24T01:58:38.434Z,126.37
2018-01-24T02:01:06.181Z,128.80
2018-01-24T02:03:32.918Z,129.37
2018-01-24T02:06:00.786Z,129.17
2018-01-24T02:08:28.463Z,129.30
2018-01-24T02:10:55.195Z,127.47
2018-01-24T02:13:22.891Z,125.60
2018-01-24T02:15:53.045Z,132.47
2018-01-24T02:18:20.766Z,132.10
2018-01-24T02:20:47.568Z,131.23
2018-01-24T02:23:14.349Z,133.50
2018-01-24T02:25:41.086Z,133.00
2018-01-24T02:28:08.840Z,127.03
2018-01-24T02:30:36.520Z,129.73
2018-01-24T02:33:05.222Z,131.27
2018-01-24T02:35:32.887Z,131.80
2018-01-24T02:38:00.541Z,126.83
2018-01-24T02:40:29.251Z,130.33
2018-01-24T02:42:57.992Z,133.03
2018-01-24T02:45:26.326Z,127.97
2018-01-24T02:50:41.011Z,134.50
2018-01-24T02:53:13.492Z,134.33
2018-01-24T02:55:41.150Z,131.73
2018-01-24T03:03:40.826Z,128.67
2018-01-24T03:06:08.561Z,126.53
2018-01-24T03:08:37.246Z,122.03
2018-01-24T03:11:08.945Z,125.13
2018-01-24T03:13:37.692Z,124.83
2018-01-24T03:16:05.378Z,125.97
2018-01-24T03:18:34.133Z,129.57
2018-01-24T03:21:02.615Z,129.53
2018-01-24T03:23:30.320Z,134.13
2018-01-24T03:25:57.118Z,133.17
2018-01-24T03:28:26.463Z,129.00
2018-01-24T03:30:53.231Z,136.50
2018-01-24T03:33:20.882Z,135.20
2018-01-24T03:35:47.617Z,129.07
2018-01-24T03:38:15.285Z,132.60
2018-01-24T03:40:42.034Z,133.60
2018-01-24T03:43:09.833Z,129.80
2018-01-24T03:45:37.467Z,124.67
2018-01-24T03:48:05.149Z,125.90
2018-01-24T03:50:31.867Z,130.30
2018-01-24T03:52:59.540Z,123.20
2018-01-24T03:55:27.240Z,127.10
2018-01-24T03:57:54.002Z,127.77
2018-01-24T04:00:21.738Z,125.07
2018-01-24T04:02:48.486Z,127.73
2018-01-24T04:05:15.205Z,126.90
2018-01-24T04:07:42.881Z,129.33
2018-01-24T04:10:09.708Z,128.17
2018-01-24T04:12:37.385Z,137.57
2018-01-24T04:15:05.041Z,138.97
2018-01-24T04:17:32.647Z,137.83
2018-01-24T04:19:59.364Z,133.23
2018-01-24T04:22:26.102Z,133.33
2018-01-24T04:24:52.861Z,131.07
2018-01-24T04:27:19.593Z,127.83
2018-01-24T04:29:47.309Z,122.47
2018-01-24T04:32:14.082Z,121.97
2018-01-24T04:34:44.425Z,122.33
2018-01-24T04:37:12.091Z,123.27
2018-01-24T04:39:39.791Z,115.07
2018-01-24T04:42:07.545Z,111.40
2018-01-24T04:44:34.291Z,112.57
2018-01-24T04:47:01.066Z,109.60
2018-01-24T04:49:28.794Z,108.57
2018-01-24T04:51:55.552Z,107.20
2018-01-24T04:54:27.211Z,109.50
2018-01-24T04:56:54.876Z,107.60
2018-01-24T04:59:22.525Z,108.07
2018-01-24T05:01:50.253Z,107.73
2018-01-24T05:04:17.967Z,108.33
2018-01-24T05:06:45.919Z,102.00
2018-01-24T05:09:13.621Z,101.27
2018-01-24T05:11:40.358Z,103.93
2018-01-24T05:14:08.017Z,106.77
2018-01-24T05:16:35.717Z,105.07
2018-01-24T05:19:03.449Z,111.70
2018-01-24T05:21:31.952Z,109.47
2018-01-24T05:23:58.695Z,115.20
2018-01-24T05:26:25.419Z,116.13
2018-01-24T05:28:53.079Z,104.33
2018-01-24T05:31:20.767Z,103.90
2018-01-24T05:33:47.498Z,97.77
2018-01-24T05:36:14.190Z,101.03
2018-01-24T05:38:42.973Z,97.50
2018-01-24T05:41:09.659Z,94.53
2018-01-24T05:43:38.367Z,86.77
2018-01-24T05:46:09.033Z,88.13
2018-01-24T05:48:36.769Z,82.37
2018-01-24T05:51:04.442Z,87.37
2018-01-24T05:53:31.206Z,84.20
2018-01-24T05:55:58.938Z,88.37
2018-01-24T05:58:26.606Z,85.87
2018-01-24T06:00:54.361Z,87.83
2018-01-24T06:03:22.162Z,83.13
2018-01-24T06:05:49.292Z,87.37
2018-01-24T06:08:16.053Z,85.00
2018-01-24T06:10:43.711Z,91.50
2018-01-24T06:13:11.379Z,96.63
2018-01-24T06:15:43.060Z,99.13
2018-01-24T06:18:09.769Z,97.57
2018-01-24T06:20:37.445Z,95.60
2018-01-24T06:23:05.134Z,94.50
2018-01-24T06:25:31.891Z,95.43
2018-01-24T06:27:59.627Z,93.13
2018-01-24T06:30:27.333Z,91.97
2018-01-24T06:32:55.989Z,89.17
2018-01-24T06:35:24.679Z,88.50
2018-01-24T06:37:52.337Z,93.23
2018-01-24T06:40:20.018Z,90.73
2018-01-24T06:42:46.742Z,90.90
2018-01-24T06:45:14.429Z,92.00
2018-01-24T06:47:42.080Z,88.47
2018-01-24T06:50:10.777Z,88.70
2018-01-24T06:52:38.455Z,84.73
2018-01-24T06:55:06.243Z,82.10
2018-01-24T06:57:32.948Z,86.67
2018-01-24T07:00:00.624Z,80.43
2018-01-24T07:02:27.381Z,79.53
2018-01-24T07:04:54.096Z,82.23
2018-01-24T07:07:20.826Z,82.53
2018-01-24T07:09:48.519Z,80.23
2018-01-24T07:12:21.133Z,80.97
2018-01-24T07:14:47.841Z,87.90
2018-01-24T07:17:15.506Z,80.33
2018-01-24T07:19:43.201Z,79.43
2018-01-24T07:22:10.503Z,80.50
2018-01-24T07:24:37.191Z,79.60
2018-01-24T07:27:03.943Z,83.10
2018-01-24T07:29:32.703Z,83.63
2018-01-24T07:31:59.392Z,80.23
2018-01-24T07:34:28.125Z,74.90
2018-01-24T07:36:55.831Z,74.00
2018-01-24T07:39:22.545Z,74.47
2018-01-24T07:41:50.240Z,72.87
2018-01-24T07:44:16.955Z,74.57
2018-01-24T07:46:44.625Z,74.27
2018-01-24T07:49:12.307Z,75.93
2018-01-24T07:51:39.018Z,74.70
2018-01-24T07:54:06.708Z,70.03
2018-01-24T07:56:33.977Z,67.27
2018-01-24T07:59:01.437Z,55.83
2018-01-24T08:01:28.174Z,50.80
2018-01-24T08:03:56.375Z,45.27
2018-01-24T08:06:25.033Z,35.30
2018-01-24T08:08:53.725Z,32.27
2018-01-24T08:11:22.428Z,33.03
2018-01-24T08:13:51.155Z,32.27
2018-01-24T08:16:24.439Z,29.67
2018-01-24T08:18:51.150Z,30.30
2018-01-24T08:21:18.814Z,28.63
2018-01-24T08:23:46.485Z,26.70
2018-01-24T08:26:13.616Z,30.30
2018-01-24T08:28:41.304Z,28.53
2018-01-24T08:31:08.095Z,27.77
2018-01-24T08:33:35.832Z,29.53
2018-01-24T08:36:03.429Z,30.60
2018-01-24T08:38:31.147Z,31.17
2018-01-24T08:40:58.855Z,30.07
2018-01-24T08:43:25.797Z,30.77
2018-01-24T08:45:53.565Z,26.50
2018-01-24T08:48:21.295Z,28.77
2018-01-24T08:50:48.943Z,27.60
2018-01-24T08:53:16.643Z,27.80
2018-01-24T08:55:43.523Z,26.87
2018-01-24T08:58:12.165Z,25.70
2018-01-24T09:00:44.357Z,26.03
2018-01-24T09:03:17.022Z,25.53
2018-01-24T09:08:46.384Z,23.67
2018-01-24T09:11:25.670Z,24.10
2018-01-24T09:16:54.778Z,25.93
2018-01-24T09:19:34.265Z,28.03
2018-01-24T09:22:19.049Z,24.83
2018-01-24T09:25:03.545Z,23.20
2018-01-24T09:27:31.272Z,23.63
2018-01-24T09:29:58.003Z,24.07
2018-01-24T09:32:24.743Z,24.83
2018-01-24T09:34:52.441Z,25.03
2018-01-24T09:37:23.033Z,25.10
2018-01-24T09:39:50.336Z,27.37
2018-01-24T09:42:17.078Z,29.20
2018-01-24T09:44:43.787Z,28.00
2018-01-24T09:47:13.083Z,28.30
2018-01-24T09:49:39.780Z,29.40
2018-01-24T09:52:06.487Z,29.57
2018-01-24T09:54:33.208Z,27.90
2018-01-24T09:57:01.377Z,29.83
2018-01-24T09:59:28.136Z,32.60
2018-01-24T10:01:55.811Z,31.20
2018-01-24T10:04:23.535Z,31.40
2018-01-24T10:06:50.286Z,31.77
2018-01-24T10:09:16.965Z,30.93
2018-01-24T10:11:44.551Z,29.50
2018-01-24T10:14:11.261Z,27.67
2018-01-24T10:16:38.249Z,28.30
2018-01-24T10:19:04.968Z,28.13
2018-01-24T10:21:31.638Z,25.47
2018-01-24T10:23:58.313Z,26.47
2018-01-24T10:26:27.087Z,24.37
2018-01-24T10:28:54.801Z,23.43
2018-01-24T10:31:22.754Z,21.70
2018-01-24T10:33:50.470Z,20.60
2018-01-24T10:36:18.074Z,18.53
2018-01-24T10:38:46.809Z,17.67
2018-01-24T10:41:14.502Z,16.83
2018-01-24T10:43:42.261Z,16.80
2018-01-24T10:46:09.866Z,17.33
2018-01-24T10:48:37.619Z,16.63
2018-01-24T10:51:05.361Z,14.37
2018-01-24T10:53:32.093Z,14.50
2018-01-24T10:55:58.829Z,17.30
2018-01-24T10:58:26.481Z,15.50
2018-01-24T11:00:54.161Z,15.20
2018-01-24T11:03:21.857Z,16.93
2018-01-24T11:05:49.499Z,16.67
2018-01-24T11:08:16.186Z,16.77
2018-01-24T11:10:45.048Z,17.40
2018-01-24T11:13:12.802Z,16.97
2018-01-24T11:15:39.481Z,16.47
2018-01-24T11:18:07.238Z,18.10
2018-01-24T11:20:33.942Z,19.13
2018-01-24T11:23:01.672Z,18.47
2018-01-24T11:25:30.448Z,19.70
2018-01-24T11:27:57.150Z,19.83
2018-01-24T11:30:24.823Z,18.27
2018-01-24T11:32:56.493Z,20.37
2018-01-24T11:35:23.216Z,18.47
2018-01-24T11:37:49.915Z,17.20
2018-01-24T11:40:24.447Z,16.23
2018-01-24T11:43:04.263Z,16.70
2018-01-24T11:45:49.616Z,17.20
2018-01-24T11:48:16.347Z,16.00
2018-01-24T11:50:44.057Z,15.90
2018-01-24T11:53:10.769Z,15.03
2018-01-24T11:55:38.442Z,14.50
2018-01-24T11:58:06.157Z,14.37
2018-01-24T12:00:33.871Z,16.40
2018-01-24T12:03:02.728Z,17.67
2018-01-24T12:05:29.459Z,16.80
2018-01-24T12:07:57.187Z,17.83
2018-01-24T12:10:23.914Z,20.07
2018-01-24T12:12:50.628Z,19.57
2018-01-24T12:15:18.416Z,22.73
2018-01-24T12:17:46.120Z,22.97
2018-01-24T12:20:12.861Z,21.00
2018-01-24T12:22:39.597Z,22.40
2018-01-24T12:25:06.557Z,23.73
2018-01-24T12:27:38.211Z,21.57
2018-01-24T12:30:05.902Z,20.70
2018-01-24T12:32:32.613Z,21.70
2018-01-24T12:35:00.357Z,21.50
2018-01-24T12:37:28.538Z,21.30
2018-01-24T12:39:56.236Z,20.97
2018-01-24T12:42:22.993Z,21.90
2018-01-24T12:44:49.722Z,26.30
2018-01-24T12:47:17.381Z,21.87
2018-01-24T12:49:44.097Z,21.93
2018-01-24T12:52:11.814Z,23.70
2018-01-24T12:54:38.540Z,21.10
2018-01-24T12:57:05.299Z,19.97
2018-01-24T12:59:32.941Z,20.93
2018-01-24T13:02:00.637Z,21.07
2018-01-24T13:04:28.124Z,20.07
2018-01-24T13:06:55.947Z,20.03
2018-01-24T13:09:22.631Z,19.97
2018-01-24T13:11:51.281Z,19.40
2018-01-24T13:14:17.990Z,20.40
2018-01-24T13:16:46.166Z,21.57
2018-01-24T13:19:12.882Z,19.27
2018-01-24T13:21:40.618Z,20.97
2018-01-24T13:24:07.293Z,20.10
2018-01-24T13:26:34.031Z,19.93
2018-01-24T13:29:01.658Z,22.17
2018-01-24T13:31:29.383Z,21.67
2018-01-24T13:33:57.147Z,22.90
2018-01-24T13:36:25.794Z,22.97
2018-01-24T13:38:54.534Z,21.10
2018-01-24T13:41:22.503Z,21.90
2018-01-24T13:43:50.237Z,20.77
2018-01-24T13:46:17.883Z,23.20
2018-01-24T13:48:46.277Z,21.47
2018-01-24T13:51:13.010Z,21.10
2018-01-24T13:53:39.726Z,21.87
2018-01-24T13:56:07.471Z,22.93
2018-01-24T13:58:36.132Z,22.33
2018-01-24T14:01:02.894Z,23.30
2018-01-24T14:03:31.645Z,20.63
2018-01-24T14:05:58.444Z,21.30
2018-01-24T14:08:26.156Z,19.70
2018-01-24T14:10:53.838Z,21.07
2018-01-24T14:13:22.569Z,21.10
2018-01-24T14:15:50.300Z,21.20
2018-01-24T14:18:17.064Z,23.07
2018-01-24T14:20:43.822Z,19.87
2018-01-24T14:23:10.506Z,23.03
2018-01-24T14:25:38.200Z,23.13
2018-01-24T14:28:04.950Z,24.20
2018-01-24T14:30:31.663Z,21.30
2018-01-24T14:32:59.861Z,22.53
2018-01-24T14:35:27.556Z,21.90
2018-01-24T14:37:55.304Z,20.83
2018-01-24T14:40:22.026Z,21.83
2018-01-24T14:42:49.696Z,20.93
2018-01-24T14:45:17.356Z,23.13
2018-01-24T14:47:45.148Z,21.50
2018-01-24T14:50:11.865Z,25.70
2018-01-24T14:52:39.526Z,24.50
2018-01-24T14:55:08.758Z,25.23
2018-01-24T14:57:35.489Z,22.90
2018-01-24T15:00:03.201Z,24.23
2018-01-24T15:02:29.937Z,25.87
2018-01-24T15:04:56.660Z,29.33
2018-01-24T15:07:23.375Z,33.60
2018-01-24T15:09:52.117Z,37.00
2018-01-24T15:12:20.750Z,37.53
2018-01-24T15:14:48.432Z,38.50
2018-01-24T15:17:16.134Z,39.17
2018-01-24T15:19:42.842Z,37.10
2018-01-24T15:22:09.541Z,36.63
2018-01-24T15:24:37.298Z,37.07
2018-01-24T15:27:05.000Z,36.10
2018-01-24T15:29:32.694Z,36.80
2018-01-24T15:31:59.409Z,36.13
2018-01-24T15:34:26.190Z,34.77
2018-01-24T15:36:52.946Z,39.53
2018-01-24T15:39:19.675Z,37.93
2018-01-24T15:41:46.441Z,39.63
2018-01-24T15:44:13.149Z,38.53
2018-01-24T15:46:41.140Z,37.97
2018-01-24T15:49:07.925Z,38.03
2018-01-24T15:51:34.961Z,35.30
2018-01-24T15:54:01.686Z,38.93
2018-01-24T15:56:28.401Z,37.80
2018-01-24T15:58:55.202Z,41.80
2018-01-24T16:01:23.864Z,39.97
2018-01-24T16:03:56.536Z,40.03
2018-01-24T16:06:23.250Z,42.00
2018-01-24T16:08:50.993Z,40.47
2018-01-24T16:11:18.702Z,42.17
2018-01-24T16:13:46.376Z,37.27
2018-01-24T16:16:14.088Z,38.20
2018-01-24T16:18:41.586Z,36.07
2018-01-24T16:21:09.280Z,39.93
2018-01-24T16:23:36.948Z,35.33
2018-01-24T16:26:03.678Z,35.40
2018-01-24T16:28:30.374Z,35.33
2018-01-24T16:30:58.130Z,38.10
2018-01-24T16:33:30.176Z,39.70
2018-01-24T16:35:57.874Z,39.03
2018-01-24T16:38:24.567Z,41.77
2018-01-24T16:40:51.269Z,39.63
2018-01-24T16:43:18.100Z,38.23
2018-01-24T16:45:45.850Z,40.73
2018-01-24T16:48:13.492Z,38.47
2018-01-24T16:50:41.172Z,39.73
2018-01-24T16:53:07.901Z,35.30
2018-01-24T16:55:35.575Z,33.70
2018-01-24T16:58:03.243Z,34.13
2018-01-24T17:00:30.021Z,34.40
2018-01-24T17:02:57.012Z,34.33
2018-01-24T17:05:24.732Z,35.23
2018-01-24T17:07:52.467Z,34.83
2018-01-24T17:10:19.221Z,34.53
2018-01-24T17:12:46.914Z,32.20
2018-01-24T17:15:14.643Z,34.20
2018-01-24T17:17:43.334Z,30.30
2018-01-24T17:20:15.167Z,28.30
2018-01-24T17:25:33.706Z,29.70
2018-01-24T17:28:09.813Z,31.20
2018-01-24T17:30:51.291Z,28.27
2018-01-24T17:33:34.833Z,29.90
2018-01-24T17:44:21.358Z,29.83
2018-01-24T17:46:52.217Z,29.97
2018-01-24T17:49:24.249Z,28.87
2018-01-24T17:51:53.003Z,29.30
2018-01-24T17:54:20.798Z,27.83
2018-01-24T17:56:48.471Z,31.23
2018-01-24T17:59:16.191Z,29.67
2018-01-24T18:01:43.920Z,28.23
2018-01-24T18:04:10.679Z,28.50
2018-01-24T18:06:37.473Z,29.93
2018-01-24T18:09:05.210Z,31.53
2018-01-24T18:11:32.922Z,30.17
2018-01-24T18:14:00.664Z,29.40
2018-01-24T18:16:28.386Z,32.00
2018-01-24T18:18:55.105Z,29.93
2018-01-24T18:21:26.796Z,30.50
2018-01-24T18:23:53.514Z,31.33
2018-01-24T18:26:21.171Z,32.07
2018-01-24T18:28:48.890Z,30.53
2018-01-24T18:31:16.624Z,34.00
2018-01-24T18:33:44.270Z,35.43
2018-01-24T18:36:12.002Z,35.63
2018-01-24T18:38:38.702Z,36.97
2018-01-24T18:41:07.388Z,36.30
2018-01-24T18:43:35.104Z,35.93
2018-01-24T18:46:02.023Z,35.10
2018-01-24T18:48:28.735Z,34.80
2018-01-24T18:50:57.485Z,32.40
2018-01-24T18:53:25.213Z,31.70
2018-01-24T18:55:51.913Z,30.93
2018-01-24T18:58:19.677Z,31.30
2018-01-24T19:00:47.375Z,31.33
2018-01-24T19:03:15.081Z,30.80
2018-01-24T19:05:41.848Z,31.97
2018-01-24T19:08:08.553Z,30.83
2018-01-24T19:10:36.190Z,30.87
2018-01-24T19:13:04.791Z,30.07
2018-01-24T19:15:32.453Z,31.67
2018-01-24T19:18:00.195Z,30.00
2018-01-24T19:20:27.921Z,31.97
2018-01-24T19:22:54.634Z,32.10
2018-01-24T19:25:22.300Z,32.13
2018-01-24T19:27:50.018Z,31.73
2018-01-24T19:30:16.734Z,29.47
2018-01-24T19:32:43.449Z,30.07
2018-01-24T19:35:11.201Z,28.83
2018-01-24T19:37:37.910Z,28.63
2018-01-24T19:40:05.669Z,29.10
2018-01-24T19:42:32.426Z,29.03
2018-01-24T19:44:59.101Z,28.27
2018-01-24T19:47:26.776Z,30.60
2018-01-24T19:49:53.541Z,30.47
2018-01-24T19:52:20.243Z,28.73
2018-01-24T19:54:47.949Z,30.27
2018-01-24T19:57:15.744Z,29.73
2018-01-24T19:59:42.406Z,30.27
2018-01-24T20:02:09.095Z,31.03
2018-01-24T20:04:36.823Z,31.30
2018-01-24T20:07:03.530Z,30.67
2018-01-24T20:09:32.209Z,29.90
2018-01-24T20:11:59.043Z,27.17
2018-01-24T20:14:27.731Z,26.60
2018-01-24T20:16:55.422Z,27.23
2018-01-24T20:19:22.190Z,24.93
2018-01-24T20:21:48.868Z,27.33
2018-01-24T20:24:16.566Z,25.83
2018-01-24T20:26:43.283Z,26.97
2018-01-24T20:29:09.979Z,26.40
2018-01-24T20:31:37.698Z,28.90
2018-01-24T20:34:05.375Z,27.23
2018-01-24T20:36:33.031Z,29.63
2018-01-24T20:39:00.726Z,26.77
2018-01-24T20:41:27.476Z,27.20
2018-01-24T20:43:54.193Z,26.83
2018-01-24T20:46:20.893Z,31.00
2018-01-24T20:48:48.647Z,29.87
2018-01-24T20:51:17.268Z,29.03
2018-01-24T20:53:43.966Z,29.20
2018-01-24T20:56:11.624Z,26.17
2018-01-24T20:58:39.265Z,26.90
2018-01-24T21:01:06.931Z,26.20
2018-01-24T21:03:34.599Z,26.43
2018-01-24T21:06:02.268Z,28.73
2018-01-24T21:08:29.931Z,28.70
2018-01-24T21:10:57.643Z,26.93
2018-01-24T21:13:25.359Z,29.03
2018-01-24T21:15:53.033Z,28.13
2018-01-24T21:18:20.708Z,27.60
2018-01-24T21:20:47.450Z,27.87
2018-01-24T21:23:14.148Z,25.87
2018-01-24T21:25:41.884Z,24.83
2018-01-24T21:28:08.619Z,25.33
2018-01-24T21:30:41.297Z,26.90
2018-01-24T21:33:13.987Z,26.10
2018-01-24T21:35:46.553Z,27.70
2018-01-24T21:38:13.231Z,26.23
2018-01-24T21:40:41.886Z,24.70
2018-01-24T21:43:08.574Z,26.90
2018-01-24T21:45:35.261Z,25.57
2018-01-24T21:48:02.960Z,25.83
2018-01-24T21:50:29.709Z,27.80
2018-01-24T21:52:57.443Z,27.70
2018-01-24T21:55:25.122Z,25.43
2018-01-24T21:57:52.797Z,26.57
2018-01-24T22:00:19.508Z,27.77
2018-01-24T22:02:47.194Z,25.53
2018-01-24T22:05:19.109Z,26.00
2018-01-24T22:07:46.849Z,26.43
2018-01-24T22:10:14.505Z,28.17
2018-01-24T22:12:42.224Z,29.50
2018-01-24T22:15:09.951Z,30.30
2018-01-24T22:17:37.585Z,28.47
2018-01-24T22:20:05.256Z,31.87
2018-01-24T22:22:32.033Z,30.30
2018-01-24T22:24:59.758Z,30.27
2018-01-24T22:27:27.426Z,29.27
2018-01-24T22:29:55.151Z,29.53
2018-01-24T22:32:23.771Z,31.90
2018-01-24T22:34:51.449Z,30.10
2018-01-24T22:37:19.180Z,28.53
2018-01-24T22:39:46.779Z,30.13
2018-01-24T22:42:15.359Z,30.23
2018-01-24T22:44:43.085Z,30.97
2018-01-24T22:47:10.795Z,30.43
2018-01-24T22:49:38.483Z,29.53
2018-01-24T22:52:06.259Z,28.47
2018-01-24T22:54:32.973Z,30.13
2018-01-24T22:57:00.639Z,32.10
2018-01-24T22:59:28.331Z,30.30
2018-01-24T23:01:55.983Z,29.10
2018-01-24T23:04:22.787Z,28.33
2018-01-24T23:06:50.541Z,30.23
2018-01-24T23:09:17.987Z,30.23
2018-01-24T23:11:45.172Z,29.83
2018-01-24T23:14:12.926Z,27.60
2018-01-24T23:16:39.659Z,26.87
2018-01-24T23:19:06.397Z,29.07
2018-01-24T23:21:33.143Z,28.50
2018-01-24T23:24:00.792Z,28.23
2018-01-24T23:26:27.523Z,26.43
2018-01-24T23:28:54.223Z,25.73
2018-01-24T23:31:21.942Z,27.50
2018-01-24T23:33:48.741Z,25.57
2018-01-24T23:36:16.488Z,24.93
2018-01-24T23:38:43.187Z,25.53
2018-01-24T23:41:10.847Z,26.17
2018-01-24T23:43:38.557Z,24.13
2018-01-24T23:46:06.283Z,26.53
2018-01-24T23:48:34.966Z,26.37
2018-01-24T23:51:02.665Z,25.70
2018-01-24T23:53:30.445Z,26.37
2018-01-24T23:55:58.165Z,25.30
2018-01-24T23:58:25.845Z,25.40
